createdAt,value
2018-12-09T00:00:59.317Z,984.68
2018-12-09T00:01:59.335Z,984.63
2018-12-09T00:02:59.358Z,984.53
2018-12-09T00:03:59.383Z,984.62
2018-12-09T00:04:59.410Z,984.57
2018-12-09T00:05:59.431Z,984.51
2018-12-09T00:06:59.460Z,984.50
2018-12-09T00:07:59.482Z,984.59
2018-12-09T00:08:59.504Z,984.52
2018-12-09T00:09:59.528Z,984.64
2018-12-09T00:10:59.552Z,984.54
2018-12-09T00:11:59.574Z,984.57
2018-12-09T00:12:59.604Z,984.63
2018-12-09T00:13:59.624Z,984.52
2018-12-09T00:14:59.648Z,984.60
2018-12-09T00:15:59.674Z,984.60
2018-12-09T00:16:59.694Z,984.55
2018-12-09T00:17:59.719Z,984.62
2018-12-09T00:18:59.743Z,984.46
2018-12-09T00:19:59.769Z,984.58
2018-12-09T00:20:59.794Z,984.49
2018-12-09T00:21:59.817Z,984.54
2018-12-09T00:22:59.841Z,984.52
2018-12-09T00:23:59.865Z,984.39
2018-12-09T00:24:59.886Z,984.52
2018-12-09T00:25:59.912Z,984.60
2018-12-09T00:26:59.939Z,984.62
2018-12-09T00:27:59.959Z,984.74
2018-12-09T00:28:59.983Z,984.69
2018-12-09T00:30:00.007Z,984.84
2018-12-09T00:31:00.036Z,984.75
2018-12-09T00:32:00.058Z,984.78
2018-12-09T00:33:00.079Z,984.60
2018-12-09T00:34:00.107Z,984.46
2018-12-09T00:35:00.130Z,984.45
2018-12-09T00:36:00.152Z,984.46
2018-12-09T00:37:00.179Z,984.40
2018-12-09T00:38:00.202Z,984.47
2018-12-09T00:39:00.226Z,984.44
2018-12-09T00:40:00.251Z,984.37
2018-12-09T00:41:00.274Z,984.32
2018-12-09T00:42:00.298Z,984.39
2018-12-09T00:43:00.320Z,984.38
2018-12-09T00:44:00.344Z,984.35
2018-12-09T00:45:00.374Z,984.40
2018-12-09T00:46:00.395Z,984.35
2018-12-09T00:47:00.519Z,984.50
2018-12-09T00:48:00.442Z,984.47
2018-12-09T00:49:00.464Z,984.42
2018-12-09T00:50:00.490Z,984.44
2018-12-09T00:51:00.512Z,984.46
2018-12-09T00:52:00.538Z,984.54
2018-12-09T00:53:00.563Z,984.49
2018-12-09T00:54:00.589Z,984.46
2018-12-09T00:55:00.611Z,984.54
2018-12-09T00:56:00.632Z,984.46
2018-12-09T00:57:00.661Z,984.47
2018-12-09T00:58:00.681Z,984.51
2018-12-09T00:59:00.707Z,984.43
2018-12-09T01:00:00.805Z,984.47
2018-12-09T01:01:00.753Z,984.31
2018-12-09T01:02:00.777Z,984.41
2018-12-09T01:03:00.803Z,984.41
2018-12-09T01:04:00.830Z,984.44
2018-12-09T01:05:00.850Z,984.39
2018-12-09T01:06:00.871Z,984.34
2018-12-09T01:07:00.897Z,984.34
2018-12-09T01:08:00.923Z,984.36
2018-12-09T01:09:00.946Z,984.31
2018-12-09T01:10:00.967Z,984.44
2018-12-09T01:11:00.995Z,984.33
2018-12-09T01:12:01.017Z,984.31
2018-12-09T01:13:01.043Z,984.51
2018-12-09T01:14:01.067Z,984.40
2018-12-09T01:15:01.090Z,984.39
2018-12-09T01:16:01.115Z,984.47
2018-12-09T01:17:01.139Z,984.41
2018-12-09T01:18:01.163Z,984.36
2018-12-09T01:19:01.187Z,984.36
2018-12-09T01:20:01.211Z,984.37
2018-12-09T01:21:01.234Z,984.38
2018-12-09T01:22:01.259Z,984.46
2018-12-09T01:23:01.281Z,984.42
2018-12-09T01:24:01.307Z,984.52
2018-12-09T01:25:01.330Z,984.51
2018-12-09T01:26:01.352Z,984.60
2018-12-09T01:27:01.375Z,984.54
2018-12-09T01:28:01.401Z,984.48
2018-12-09T01:29:01.424Z,984.52
2018-12-09T01:30:01.451Z,984.57
2018-12-09T01:31:01.472Z,984.53
2018-12-09T01:32:01.498Z,984.57
2018-12-09T01:33:01.521Z,984.59
2018-12-09T01:34:01.548Z,984.51
2018-12-09T01:35:01.571Z,984.62
2018-12-09T01:36:01.592Z,984.68
2018-12-09T01:37:01.619Z,984.59
2018-12-09T01:38:01.643Z,984.64
2018-12-09T01:39:01.667Z,984.66
2018-12-09T01:40:01.689Z,984.70
2018-12-09T01:41:01.715Z,984.65
2018-12-09T01:42:01.740Z,984.68
2018-12-09T01:43:01.763Z,984.61
2018-12-09T01:44:01.786Z,984.66
2018-12-09T01:45:01.814Z,984.65
2018-12-09T01:46:01.833Z,984.77
2018-12-09T01:47:01.860Z,984.77
2018-12-09T01:48:01.886Z,984.72
2018-12-09T01:49:01.913Z,984.71
2018-12-09T01:50:01.931Z,984.72
2018-12-09T01:51:01.956Z,984.75
2018-12-09T01:52:01.980Z,984.66
2018-12-09T01:53:02.006Z,984.75
2018-12-09T01:54:02.028Z,984.75
2018-12-09T01:55:02.050Z,984.69
2018-12-09T01:56:02.075Z,984.64
2018-12-09T01:57:02.103Z,984.72
2018-12-09T01:58:02.126Z,984.75
2018-12-09T01:59:02.147Z,984.71
2018-12-09T02:00:02.171Z,984.76
2018-12-09T02:01:02.196Z,984.67
2018-12-09T02:02:02.220Z,984.70
2018-12-09T02:03:02.243Z,984.74
2018-12-09T02:04:02.267Z,984.73
2018-12-09T02:05:02.306Z,984.76
2018-12-09T02:06:02.318Z,984.77
2018-12-09T02:07:02.340Z,984.83
2018-12-09T02:08:02.366Z,984.80
2018-12-09T02:09:02.389Z,984.86
2018-12-09T02:10:02.414Z,984.82
2018-12-09T02:11:02.436Z,984.97
2018-12-09T02:12:02.463Z,984.89
2018-12-09T02:13:02.493Z,984.78
2018-12-09T02:14:02.511Z,984.98
2018-12-09T02:15:02.536Z,984.80
2018-12-09T02:16:02.557Z,984.90
2018-12-09T02:17:02.584Z,984.90
2018-12-09T02:18:02.607Z,984.87
2018-12-09T02:19:02.630Z,984.92
2018-12-09T02:20:02.656Z,985.02
2018-12-09T02:21:02.680Z,984.98
2018-12-09T02:22:02.701Z,985.04
2018-12-09T02:23:02.725Z,985.00
2018-12-09T02:24:02.751Z,985.00
2018-12-09T02:25:02.774Z,985.20
2018-12-09T02:26:02.797Z,984.99
2018-12-09T02:27:02.824Z,985.05
2018-12-09T02:28:02.846Z,985.02
2018-12-09T02:29:02.871Z,985.00
2018-12-09T02:30:02.899Z,985.06
2018-12-09T02:31:02.927Z,985.05
2018-12-09T02:32:02.944Z,985.01
2018-12-09T02:33:02.968Z,985.12
2018-12-09T02:34:02.991Z,985.12
2018-12-09T02:35:03.018Z,985.03
2018-12-09T02:36:03.043Z,985.12
2018-12-09T02:37:03.069Z,985.15
2018-12-09T02:38:03.087Z,985.12
2018-12-09T02:39:03.113Z,985.13
2018-12-09T02:40:03.139Z,985.05
2018-12-09T02:41:03.160Z,985.12
2018-12-09T02:42:03.186Z,985.11
2018-12-09T02:43:03.212Z,985.16
2018-12-09T02:44:03.237Z,985.11
2018-12-09T02:45:03.260Z,985.14
2018-12-09T02:46:03.281Z,985.06
2018-12-09T02:47:03.308Z,985.12
2018-12-09T02:48:03.334Z,985.08
2018-12-09T02:49:03.357Z,985.16
2018-12-09T02:50:03.380Z,985.17
2018-12-09T02:51:03.404Z,985.11
2018-12-09T02:52:03.427Z,985.09
2018-12-09T02:53:03.452Z,985.10
2018-12-09T02:54:03.480Z,985.13
2018-12-09T02:55:03.503Z,985.11
2018-12-09T02:56:03.527Z,985.23
2018-12-09T02:57:03.547Z,985.08
2018-12-09T02:58:03.575Z,985.09
2018-12-09T02:59:03.601Z,985.09
2018-12-09T03:00:03.621Z,985.04
2018-12-09T03:01:03.648Z,985.13
2018-12-09T03:02:03.689Z,985.10
2018-12-09T03:03:03.695Z,985.09
2018-12-09T03:04:03.721Z,985.11
2018-12-09T03:05:03.741Z,985.15
2018-12-09T03:06:03.765Z,985.24
2018-12-09T03:07:03.806Z,985.11
2018-12-09T03:08:03.819Z,985.07
2018-12-09T03:09:03.839Z,985.09
2018-12-09T03:10:03.872Z,985.18
2018-12-09T03:11:03.887Z,985.23
2018-12-09T03:12:03.910Z,985.18
2018-12-09T03:13:03.939Z,985.12
2018-12-09T03:14:03.959Z,985.08
2018-12-09T03:15:03.984Z,985.10
2018-12-09T03:16:04.008Z,985.16
2018-12-09T03:17:04.035Z,985.15
2018-12-09T03:18:04.055Z,985.15
2018-12-09T03:19:04.083Z,985.19
2018-12-09T03:20:04.108Z,985.17
2018-12-09T03:21:04.133Z,985.20
2018-12-09T03:22:04.155Z,985.44
2018-12-09T03:23:04.180Z,985.20
2018-12-09T03:24:04.204Z,985.20
2018-12-09T03:25:04.227Z,985.19
2018-12-09T03:26:04.251Z,985.19
2018-12-09T03:27:04.306Z,985.31
2018-12-09T03:28:04.300Z,985.25
2018-12-09T03:29:04.326Z,985.24
2018-12-09T03:30:04.355Z,985.19
2018-12-09T03:31:04.375Z,985.17
2018-12-09T03:32:04.398Z,985.23
2018-12-09T03:33:04.421Z,985.36
2018-12-09T03:34:04.444Z,985.33
2018-12-09T03:35:04.468Z,985.26
2018-12-09T03:36:04.498Z,985.32
2018-12-09T03:37:04.520Z,985.21
2018-12-09T03:38:04.543Z,985.29
2018-12-09T03:39:04.565Z,985.33
2018-12-09T03:40:04.592Z,985.34
2018-12-09T03:41:04.618Z,985.33
2018-12-09T03:42:04.640Z,985.31
2018-12-09T03:43:04.662Z,985.31
2018-12-09T03:44:04.686Z,985.24
2018-12-09T03:45:04.713Z,985.38
2018-12-09T03:46:04.735Z,985.36
2018-12-09T03:47:04.761Z,985.38
2018-12-09T03:48:04.783Z,985.50
2018-12-09T03:49:04.807Z,985.47
2018-12-09T03:50:04.831Z,985.51
2018-12-09T03:51:04.856Z,985.51
2018-12-09T03:52:04.880Z,985.47
2018-12-09T03:53:04.903Z,985.50
2018-12-09T03:54:04.928Z,985.54
2018-12-09T03:55:04.965Z,985.52
2018-12-09T03:56:04.979Z,985.47
2018-12-09T03:57:05.010Z,985.48
2018-12-09T03:58:05.027Z,985.46
2018-12-09T03:59:05.052Z,985.45
2018-12-09T04:00:05.074Z,985.48
2018-12-09T04:01:05.097Z,985.44
2018-12-09T04:02:05.123Z,985.45
2018-12-09T04:03:05.147Z,985.45
2018-12-09T04:04:05.172Z,985.43
2018-12-09T04:05:05.195Z,985.49
2018-12-09T04:06:05.220Z,985.44
2018-12-09T04:07:05.246Z,985.45
2018-12-09T04:08:05.270Z,985.40
2018-12-09T04:09:05.294Z,985.50
2018-12-09T04:10:05.317Z,985.54
2018-12-09T04:11:05.338Z,985.46
2018-12-09T04:12:05.364Z,985.50
2018-12-09T04:13:05.390Z,985.58
2018-12-09T04:14:05.411Z,985.52
2018-12-09T04:15:05.438Z,985.50
2018-12-09T04:16:05.463Z,985.49
2018-12-09T04:17:05.485Z,985.56
2018-12-09T04:18:05.511Z,985.54
2018-12-09T04:19:05.535Z,985.53
2018-12-09T04:20:05.575Z,985.51
2018-12-09T04:21:05.585Z,985.53
2018-12-09T04:22:05.609Z,985.52
2018-12-09T04:23:05.630Z,985.45
2018-12-09T04:24:05.654Z,985.41
2018-12-09T04:25:05.678Z,985.44
2018-12-09T04:26:05.702Z,985.46
2018-12-09T04:27:05.727Z,985.52
2018-12-09T04:28:05.754Z,985.50
2018-12-09T04:29:05.775Z,985.54
2018-12-09T04:30:05.800Z,985.58
2018-12-09T04:31:05.825Z,985.61
2018-12-09T04:32:05.849Z,985.55
2018-12-09T04:33:05.871Z,985.59
2018-12-09T04:34:05.895Z,985.66
2018-12-09T04:35:05.922Z,985.69
2018-12-09T04:36:05.944Z,985.63
2018-12-09T04:37:05.971Z,985.59
2018-12-09T04:38:05.992Z,985.64
2018-12-09T04:39:06.020Z,985.66
2018-12-09T04:40:06.042Z,985.63
2018-12-09T04:41:06.068Z,985.65
2018-12-09T04:42:06.088Z,985.64
2018-12-09T04:43:06.116Z,985.60
2018-12-09T04:44:06.140Z,985.65
2018-12-09T04:45:06.162Z,985.59
2018-12-09T04:46:06.187Z,985.65
2018-12-09T04:47:06.214Z,985.62
2018-12-09T04:48:06.236Z,985.70
2018-12-09T04:49:06.260Z,985.65
2018-12-09T04:50:06.285Z,985.73
2018-12-09T04:51:06.310Z,985.76
2018-12-09T04:52:06.331Z,985.78
2018-12-09T04:53:06.358Z,985.69
2018-12-09T04:54:06.391Z,985.73
2018-12-09T04:55:06.407Z,985.79
2018-12-09T04:56:06.429Z,985.70
2018-12-09T04:57:06.455Z,985.66
2018-12-09T04:58:06.479Z,985.72
2018-12-09T04:59:06.501Z,985.72
2018-12-09T05:00:06.528Z,985.77
2018-12-09T05:01:06.552Z,985.82
2018-12-09T05:02:06.575Z,985.73
2018-12-09T05:03:06.601Z,985.76
2018-12-09T05:04:06.625Z,985.72
2018-12-09T05:05:06.649Z,985.84
2018-12-09T05:06:06.673Z,985.77
2018-12-09T05:07:06.697Z,985.88
2018-12-09T05:08:06.719Z,985.86
2018-12-09T05:09:06.748Z,985.91
2018-12-09T05:10:06.771Z,985.83
2018-12-09T05:11:06.794Z,985.92
2018-12-09T05:12:06.821Z,985.88
2018-12-09T05:13:06.844Z,985.78
2018-12-09T05:14:06.869Z,985.86
2018-12-09T05:15:06.889Z,985.90
2018-12-09T05:16:06.916Z,985.79
2018-12-09T05:17:06.940Z,985.92
2018-12-09T05:18:06.964Z,985.90
2018-12-09T05:19:06.993Z,985.97
2018-12-09T05:20:07.010Z,985.98
2018-12-09T05:21:07.036Z,985.94
2018-12-09T05:22:07.060Z,985.94
2018-12-09T05:23:07.084Z,986.00
2018-12-09T05:24:07.106Z,985.93
2018-12-09T05:25:07.133Z,985.96
2018-12-09T05:26:07.153Z,986.03
2018-12-09T05:27:07.180Z,985.98
2018-12-09T05:28:07.204Z,986.01
2018-12-09T05:29:07.231Z,986.01
2018-12-09T05:30:07.256Z,986.09
2018-12-09T05:31:07.276Z,986.07
2018-12-09T05:32:07.300Z,986.01
2018-12-09T05:33:07.327Z,986.03
2018-12-09T05:34:07.351Z,986.05
2018-12-09T05:35:07.401Z,985.99
2018-12-09T05:36:07.399Z,986.05
2018-12-09T05:37:07.422Z,986.01
2018-12-09T05:38:07.447Z,986.03
2018-12-09T05:39:07.472Z,986.10
2018-12-09T05:40:07.497Z,986.06
2018-12-09T05:41:07.518Z,986.08
2018-12-09T05:42:07.541Z,986.10
2018-12-09T05:43:07.568Z,986.14
2018-12-09T05:44:07.591Z,986.16
2018-12-09T05:45:07.616Z,986.14
2018-12-09T05:46:08.571Z,986.15
2018-12-09T05:47:07.665Z,986.19
2018-12-09T05:48:07.690Z,986.15
2018-12-09T05:49:07.711Z,986.13
2018-12-09T05:50:07.735Z,986.17
2018-12-09T05:51:07.764Z,986.10
2018-12-09T05:52:07.787Z,986.17
2018-12-09T05:53:07.811Z,986.19
2018-12-09T05:54:07.834Z,986.25
2018-12-09T05:55:07.859Z,986.16
2018-12-09T05:56:07.881Z,986.22
2018-12-09T05:57:07.910Z,986.25
2018-12-09T05:58:07.932Z,986.14
2018-12-09T05:59:07.957Z,986.19
2018-12-09T06:00:07.978Z,986.22
2018-12-09T06:01:08.002Z,986.17
2018-12-09T06:02:08.028Z,986.29
2018-12-09T06:03:08.050Z,986.39
2018-12-09T06:04:08.073Z,986.33
2018-12-09T06:05:08.101Z,986.29
2018-12-09T06:06:08.194Z,986.44
2018-12-09T06:07:08.148Z,986.38
2018-12-09T06:08:08.171Z,986.40
2018-12-09T06:09:08.198Z,986.43
2018-12-09T06:10:08.219Z,986.35
2018-12-09T06:11:08.242Z,986.46
2018-12-09T06:12:08.269Z,986.44
2018-12-09T06:13:08.293Z,986.46
2018-12-09T06:14:08.318Z,986.41
2018-12-09T06:15:08.344Z,986.41
2018-12-09T06:16:08.363Z,986.48
2018-12-09T06:17:08.391Z,986.43
2018-12-09T06:18:08.415Z,986.47
2018-12-09T06:19:08.438Z,986.43
2018-12-09T06:20:08.461Z,986.42
2018-12-09T06:21:08.488Z,986.47
2018-12-09T06:22:08.508Z,986.50
2018-12-09T06:23:08.533Z,986.50
2018-12-09T06:24:08.559Z,986.53
2018-12-09T06:25:08.583Z,986.48
2018-12-09T06:26:08.608Z,986.55
2018-12-09T06:27:08.629Z,986.57
2018-12-09T06:28:08.656Z,986.59
2018-12-09T06:29:08.681Z,986.54
2018-12-09T06:30:08.702Z,986.54
2018-12-09T06:31:08.729Z,986.59
2018-12-09T06:32:08.753Z,986.55
2018-12-09T06:33:08.775Z,986.57
2018-12-09T06:34:08.799Z,986.64
2018-12-09T06:35:08.822Z,986.57
2018-12-09T06:36:08.849Z,986.45
2018-12-09T06:37:08.874Z,986.49
2018-12-09T06:38:08.899Z,986.54
2018-12-09T06:39:08.922Z,986.62
2018-12-09T06:40:08.946Z,986.61
2018-12-09T06:41:08.970Z,986.60
2018-12-09T06:42:08.996Z,986.51
2018-12-09T06:43:09.018Z,986.52
2018-12-09T06:44:09.048Z,986.52
2018-12-09T06:45:09.066Z,986.55
2018-12-09T06:46:09.089Z,986.58
2018-12-09T06:47:09.112Z,986.65
2018-12-09T06:48:09.139Z,986.70
2018-12-09T06:49:09.165Z,986.55
2018-12-09T06:50:09.187Z,986.59
2018-12-09T06:51:09.211Z,986.58
2018-12-09T06:52:09.234Z,986.61
2018-12-09T06:53:09.260Z,986.66
2018-12-09T06:54:09.282Z,986.68
2018-12-09T06:55:09.306Z,986.68
2018-12-09T06:56:09.333Z,986.70
2018-12-09T06:57:09.357Z,986.74
2018-12-09T06:58:09.380Z,986.74
2018-12-09T06:59:09.407Z,986.78
2018-12-09T07:00:09.429Z,986.74
2018-12-09T07:01:09.452Z,986.81
2018-12-09T07:02:09.475Z,986.88
2018-12-09T07:03:09.502Z,986.74
2018-12-09T07:04:09.524Z,986.81
2018-12-09T07:05:09.548Z,986.73
2018-12-09T07:06:09.574Z,986.74
2018-12-09T07:07:09.598Z,986.88
2018-12-09T07:08:09.623Z,986.80
2018-12-09T07:09:09.647Z,986.79
2018-12-09T07:10:09.669Z,986.81
2018-12-09T07:11:09.695Z,986.88
2018-12-09T07:12:09.717Z,986.77
2018-12-09T07:13:09.744Z,986.87
2018-12-09T07:14:09.768Z,986.89
2018-12-09T07:15:09.789Z,986.86
2018-12-09T07:16:09.816Z,986.94
2018-12-09T07:17:09.838Z,987.02
2018-12-09T07:18:09.865Z,986.96
2018-12-09T07:19:09.887Z,987.00
2018-12-09T07:20:09.915Z,986.99
2018-12-09T07:21:09.935Z,986.96
2018-12-09T07:22:09.961Z,987.00
2018-12-09T07:23:09.982Z,987.05
2018-12-09T07:24:10.008Z,987.11
2018-12-09T07:25:10.032Z,987.10
2018-12-09T07:26:10.056Z,987.16
2018-12-09T07:27:10.083Z,987.07
2018-12-09T07:28:10.305Z,987.09
2018-12-09T07:29:10.280Z,987.11
2018-12-09T07:30:10.305Z,987.11
2018-12-09T07:31:10.179Z,987.15
2018-12-09T07:32:10.302Z,987.16
2018-12-09T07:33:10.276Z,987.19
2018-12-09T07:34:10.302Z,987.24
2018-12-09T07:35:10.273Z,987.19
2018-12-09T07:36:10.400Z,987.19
2018-12-09T07:37:10.322Z,987.24
2018-12-09T07:38:10.348Z,987.17
2018-12-09T07:39:10.370Z,987.19
2018-12-09T07:40:10.395Z,987.25
2018-12-09T07:41:10.420Z,987.38
2018-12-09T07:42:10.443Z,987.33
2018-12-09T07:43:10.469Z,987.46
2018-12-09T07:44:10.496Z,987.46
2018-12-09T07:45:10.516Z,987.52
2018-12-09T07:46:10.539Z,987.53
2018-12-09T07:47:10.564Z,987.59
2018-12-09T07:48:10.590Z,987.57
2018-12-09T07:49:10.613Z,987.60
2018-12-09T07:50:10.642Z,987.60
2018-12-09T07:51:10.663Z,987.65
2018-12-09T07:52:10.687Z,987.78
2018-12-09T07:53:10.712Z,987.80
2018-12-09T07:54:10.735Z,987.93
2018-12-09T07:55:10.758Z,987.80
2018-12-09T07:56:10.783Z,987.80
2018-12-09T07:57:10.809Z,987.96
2018-12-09T07:58:10.832Z,988.01
2018-12-09T07:59:10.856Z,988.04
2018-12-09T08:00:10.925Z,988.07
2018-12-09T08:01:10.906Z,988.11
2018-12-09T08:02:10.929Z,988.15
2018-12-09T08:03:10.954Z,988.21
2018-12-09T08:04:10.979Z,988.16
2018-12-09T08:05:10.999Z,988.22
2018-12-09T08:06:11.024Z,988.32
2018-12-09T08:07:11.049Z,988.39
2018-12-09T08:08:11.075Z,988.40
2018-12-09T08:09:11.100Z,988.57
2018-12-09T08:10:11.121Z,988.50
2018-12-09T08:11:11.146Z,988.57
2018-12-09T08:12:11.173Z,988.58
2018-12-09T08:13:11.347Z,988.64
2018-12-09T08:14:11.219Z,988.60
2018-12-09T08:15:11.243Z,988.58
2018-12-09T08:16:11.270Z,988.50
2018-12-09T08:17:11.292Z,988.75
2018-12-09T08:18:11.316Z,988.69
2018-12-09T08:19:11.342Z,988.67
2018-12-09T08:20:11.366Z,988.68
2018-12-09T08:21:11.393Z,988.72
2018-12-09T08:22:11.418Z,988.68
2018-12-09T08:23:11.439Z,988.78
2018-12-09T08:24:11.462Z,988.73
2018-12-09T08:25:11.488Z,988.83
2018-12-09T08:26:11.509Z,988.82
2018-12-09T08:27:11.541Z,988.89
2018-12-09T08:28:11.558Z,988.80
2018-12-09T08:29:11.584Z,988.74
2018-12-09T08:30:11.610Z,988.59
2018-12-09T08:31:11.633Z,988.70
2018-12-09T08:32:11.658Z,988.69
2018-12-09T08:33:11.680Z,988.75
2018-12-09T08:34:11.704Z,988.73
2018-12-09T08:35:11.729Z,988.70
2018-12-09T08:36:11.762Z,988.79
2018-12-09T08:37:11.778Z,988.79
2018-12-09T08:38:11.799Z,988.79
2018-12-09T08:39:11.824Z,988.76
2018-12-09T08:40:11.849Z,988.75
2018-12-09T08:41:11.872Z,988.83
2018-12-09T08:42:11.896Z,988.86
2018-12-09T08:43:11.922Z,988.83
2018-12-09T08:44:11.946Z,988.86
2018-12-09T08:45:11.971Z,988.87
2018-12-09T08:46:11.994Z,988.87
2018-12-09T08:47:12.014Z,988.83
2018-12-09T08:48:12.040Z,988.88
2018-12-09T08:49:12.066Z,988.82
2018-12-09T08:50:12.090Z,988.83
2018-12-09T08:51:12.111Z,988.82
2018-12-09T08:52:12.135Z,988.89
2018-12-09T08:53:12.162Z,988.92
2018-12-09T08:54:12.190Z,988.94
2018-12-09T08:55:12.207Z,988.95
2018-12-09T08:56:12.233Z,988.94
2018-12-09T08:57:12.257Z,989.00
2018-12-09T08:58:12.279Z,989.03
2018-12-09T08:59:12.305Z,989.02
2018-12-09T09:00:12.329Z,988.97
2018-12-09T09:01:12.353Z,989.03
2018-12-09T09:02:12.379Z,989.08
2018-12-09T09:03:12.400Z,989.16
2018-12-09T09:04:12.422Z,989.10
2018-12-09T09:05:12.449Z,989.19
2018-12-09T09:06:12.473Z,989.18
2018-12-09T09:07:12.498Z,989.18
2018-12-09T09:08:12.520Z,989.20
2018-12-09T09:09:12.545Z,989.27
2018-12-09T09:10:12.567Z,989.28
2018-12-09T09:11:12.594Z,989.32
2018-12-09T09:12:12.614Z,989.29
2018-12-09T09:13:12.640Z,989.40
2018-12-09T09:14:12.663Z,989.42
2018-12-09T09:15:12.688Z,989.43
2018-12-09T09:16:12.709Z,989.43
2018-12-09T09:17:12.736Z,989.44
2018-12-09T09:18:12.756Z,989.47
2018-12-09T09:19:12.883Z,989.46
2018-12-09T09:20:12.806Z,989.45
2018-12-09T09:21:12.831Z,989.46
2018-12-09T09:22:12.854Z,989.52
2018-12-09T09:23:12.876Z,989.50
2018-12-09T09:24:12.901Z,989.55
2018-12-09T09:25:12.929Z,989.56
2018-12-09T09:26:12.947Z,989.55
2018-12-09T09:27:12.975Z,989.61
2018-12-09T09:28:12.996Z,989.65
2018-12-09T09:29:13.020Z,989.69
2018-12-09T09:30:13.045Z,989.66
2018-12-09T09:31:13.067Z,989.62
2018-12-09T09:32:13.093Z,989.70
2018-12-09T09:33:13.115Z,989.78
2018-12-09T09:34:13.138Z,989.72
2018-12-09T09:35:13.164Z,989.80
2018-12-09T09:36:13.187Z,989.75
2018-12-09T09:37:13.212Z,989.74
2018-12-09T09:38:13.233Z,989.78
2018-12-09T09:39:13.257Z,989.74
2018-12-09T09:40:13.288Z,989.71
2018-12-09T09:41:13.305Z,989.76
2018-12-09T09:42:13.330Z,989.63
2018-12-09T09:43:13.353Z,989.70
2018-12-09T09:44:13.379Z,989.71
2018-12-09T09:45:13.404Z,989.72
2018-12-09T09:46:13.426Z,989.81
2018-12-09T09:47:13.452Z,989.80
2018-12-09T09:48:13.474Z,989.87
2018-12-09T09:49:13.499Z,989.84
2018-12-09T09:50:13.519Z,989.89
2018-12-09T09:51:13.545Z,989.82
2018-12-09T09:52:13.570Z,989.77
2018-12-09T09:53:13.594Z,989.81
2018-12-09T09:54:13.614Z,989.81
2018-12-09T09:55:13.638Z,989.83
2018-12-09T09:56:13.665Z,989.85
2018-12-09T09:57:13.688Z,989.87
2018-12-09T09:58:13.710Z,989.89
2018-12-09T09:59:13.740Z,989.90
2018-12-09T10:00:13.758Z,989.91
2018-12-09T10:01:13.781Z,989.97
2018-12-09T10:02:13.804Z,989.99
2018-12-09T10:03:13.831Z,989.97
2018-12-09T10:04:13.855Z,989.98
2018-12-09T10:05:13.878Z,990.00
2018-12-09T10:06:13.899Z,989.99
2018-12-09T10:07:13.923Z,990.04
2018-12-09T10:08:13.950Z,990.10
2018-12-09T10:09:13.970Z,990.00
2018-12-09T10:10:13.994Z,990.06
2018-12-09T10:11:14.025Z,990.10
2018-12-09T10:12:14.044Z,990.10
2018-12-09T10:13:14.067Z,990.06
2018-12-09T10:14:14.092Z,990.19
2018-12-09T10:15:14.115Z,990.16
2018-12-09T10:16:14.140Z,990.14
2018-12-09T10:17:14.161Z,990.16
2018-12-09T10:18:14.187Z,990.24
2018-12-09T10:19:14.209Z,990.27
2018-12-09T10:20:14.235Z,990.25
2018-12-09T10:21:14.257Z,990.21
2018-12-09T10:22:14.280Z,990.21
2018-12-09T10:23:16.077Z,990.23
2018-12-09T10:24:14.426Z,990.27
2018-12-09T10:25:14.352Z,990.25
2018-12-09T10:26:14.378Z,990.24
2018-12-09T10:27:14.402Z,990.21
2018-12-09T10:28:14.424Z,990.27
2018-12-09T10:29:14.451Z,990.32
2018-12-09T10:30:14.472Z,990.36
2018-12-09T10:31:14.496Z,990.38
2018-12-09T10:32:14.521Z,990.38
2018-12-09T10:33:14.547Z,990.37
2018-12-09T10:34:14.570Z,990.43
2018-12-09T10:35:14.598Z,990.49
2018-12-09T10:36:14.619Z,990.42
2018-12-09T10:37:14.641Z,990.47
2018-12-09T10:38:14.664Z,990.41
2018-12-09T10:39:14.692Z,990.51
2018-12-09T10:40:14.715Z,990.52
2018-12-09T10:41:14.740Z,990.58
2018-12-09T10:42:14.764Z,990.57
2018-12-09T10:43:14.786Z,990.52
2018-12-09T10:44:14.810Z,990.55
2018-12-09T10:45:14.835Z,990.52
2018-12-09T10:46:14.858Z,990.52
2018-12-09T10:47:14.885Z,990.53
2018-12-09T10:48:14.914Z,990.61
2018-12-09T10:49:14.934Z,990.58
2018-12-09T10:50:14.955Z,990.61
2018-12-09T10:51:14.980Z,990.60
2018-12-09T10:52:15.007Z,990.59
2018-12-09T10:53:15.032Z,990.66
2018-12-09T10:54:15.055Z,990.68
2018-12-09T10:55:15.080Z,990.70
2018-12-09T10:56:15.105Z,990.63
2018-12-09T10:57:15.128Z,990.72
2018-12-09T10:58:15.154Z,990.65
2018-12-09T10:59:15.179Z,990.72
2018-12-09T11:00:15.202Z,990.73
2018-12-09T11:01:15.229Z,990.67
2018-12-09T11:02:15.253Z,990.70
2018-12-09T11:03:15.278Z,990.75
2018-12-09T11:04:15.303Z,990.67
2018-12-09T11:05:15.326Z,990.60
2018-12-09T11:06:15.350Z,990.70
2018-12-09T11:07:15.377Z,990.76
2018-12-09T11:08:16.658Z,990.78
2018-12-09T11:09:15.428Z,990.72
2018-12-09T11:10:15.450Z,990.65
2018-12-09T11:11:15.475Z,990.67
2018-12-09T11:12:15.504Z,990.69
2018-12-09T11:13:15.536Z,990.61
2018-12-09T11:14:15.549Z,990.72
2018-12-09T11:15:15.577Z,990.74
2018-12-09T11:16:15.603Z,990.74
2018-12-09T11:17:15.625Z,990.80
2018-12-09T11:18:15.649Z,990.84
2018-12-09T11:19:15.675Z,990.77
2018-12-09T11:20:15.701Z,990.78
2018-12-09T11:21:15.724Z,990.82
2018-12-09T11:22:15.750Z,990.82
2018-12-09T11:23:15.776Z,990.87
2018-12-09T11:24:15.801Z,990.87
2018-12-09T11:25:15.823Z,990.88
2018-12-09T11:26:15.849Z,990.83
2018-12-09T11:27:15.873Z,990.84
2018-12-09T11:28:15.900Z,990.91
2018-12-09T11:29:15.925Z,990.86
2018-12-09T11:30:15.949Z,990.86
2018-12-09T11:31:15.972Z,990.90
2018-12-09T11:32:16.005Z,990.86
2018-12-09T11:33:16.024Z,990.95
2018-12-09T11:34:16.048Z,991.02
2018-12-09T11:35:16.070Z,991.09
2018-12-09T11:36:16.096Z,991.02
2018-12-09T11:37:16.120Z,991.04
2018-12-09T11:38:16.173Z,991.01
2018-12-09T11:39:16.172Z,991.05
2018-12-09T11:40:16.193Z,991.04
2018-12-09T11:41:16.221Z,991.04
2018-12-09T11:42:16.245Z,991.06
2018-12-09T11:43:16.270Z,991.10
2018-12-09T11:44:16.296Z,991.13
2018-12-09T11:45:16.317Z,991.12
2018-12-09T11:46:16.344Z,991.13
2018-12-09T11:47:16.368Z,991.12
2018-12-09T11:48:16.393Z,991.13
2018-12-09T11:49:16.418Z,991.13
2018-12-09T11:50:16.440Z,991.16
2018-12-09T11:51:16.468Z,991.17
2018-12-09T11:52:16.492Z,991.19
2018-12-09T11:53:16.515Z,991.22
2018-12-09T11:54:16.539Z,991.20
2018-12-09T11:55:16.567Z,991.23
2018-12-09T11:56:16.590Z,991.16
2018-12-09T11:57:16.617Z,991.17
2018-12-09T11:58:16.641Z,991.17
2018-12-09T11:59:16.669Z,991.24
2018-12-09T12:00:16.689Z,991.26
2018-12-09T12:01:16.717Z,991.27
2018-12-09T12:02:20.079Z,991.27
2018-12-09T12:03:16.764Z,991.30
2018-12-09T12:04:16.789Z,991.36
2018-12-09T12:05:16.814Z,991.31
2018-12-09T12:06:16.844Z,991.24
2018-12-09T12:07:16.863Z,991.32
2018-12-09T12:08:16.929Z,991.31
2018-12-09T12:09:16.914Z,991.30
2018-12-09T12:10:16.942Z,991.33
2018-12-09T12:11:16.969Z,991.53
2018-12-09T12:12:16.991Z,992.11
2018-12-09T12:13:17.016Z,991.57
2018-12-09T12:14:17.038Z,992.21
2018-12-09T12:15:17.065Z,991.30
2018-12-09T12:16:17.091Z,992.16
2018-12-09T12:17:17.115Z,991.34
2018-12-09T12:18:17.140Z,991.48
2018-12-09T12:19:17.168Z,992.41
2018-12-09T12:20:17.192Z,992.27
2018-12-09T12:21:17.217Z,991.57
2018-12-09T12:22:17.245Z,992.02
2018-12-09T12:23:17.276Z,991.42
2018-12-09T12:24:17.301Z,991.38
2018-12-09T12:25:17.324Z,991.60
2018-12-09T12:26:17.349Z,992.21
2018-12-09T12:27:17.386Z,991.68
2018-12-09T12:28:17.403Z,992.15
2018-12-09T12:29:17.436Z,992.56